Kittitas — WYQ9302 — position and weather

sailwx.info

Track history (hours):
 
Tides and Currents Weather Stations Pressure Air Temp Water Temp Dewpoint Dewpoint Depression Visibility Wind Speed Wind Dir Waves Ship Positions

Kittitas

Owner: WASHINGTON, STATE OF; Department of Transportation, OLYMPIA, WA. More information available from US FCC via Universal Licensing System and Coast Guard Vessel Documentation Center.

Last reported at 2015-Sep-02 16:33 UTC. Time now 2015-Sep-02 16:59 UTC.
Position N 47°58' W 122°20'.

Length 100 m; draft 4.7 m.

Type: Passenger vessel. MMSI: 366772960.

Date/timePositionNaut miles runAvg speedWind from/ knotsBaromVisibWave heightAir tempDewpointWater temp
2015-Sep-02 16:33N 47°58' W 122°20'0 1.3
2015-Sep-02 16:12N 47°58' W 122°21'0 0.6
2015-Sep-02 15:33N 47°58' W 122°20'1 1.5
2015-Sep-02 15:07N 47°58' W 122°20'1 1.1
2015-Sep-02 14:33N 47°58' W 122°20'013.7
2015-Sep-02 14:32N 47°58' W 122°21'0 0.1
2015-Sep-02 13:33N 47°58' W 122°20'1 1.8
2015-Sep-02 13:06N 47°58' W 122°20'1 1.4
2015-Sep-02 12:33N 47°58' W 122°20'010.0
2015-Sep-02 12:31N 47°58' W 122°21'0 0.3
2015-Sep-02 11:33N 47°59' W 122°21'0 0.0
2015-Sep-02 10:33N 47°59' W 122°21'0 0.3
2015-Sep-02 10:25N 47°59' W 122°21'0 0.0
2015-Sep-02 09:20N 47°59' W 122°21'0 0.0
2015-Sep-02 08:08N 47°59' W 122°21'0 0.7
2015-Sep-02 08:05N 47°59' W 122°21'0 0.1
2015-Sep-02 07:30N 47°59' W 122°21'0 0.0
2015-Sep-02 07:30N 47°59' W 122°21'0 0.0
2015-Sep-02 06:33N 47°59' W 122°21'0 0.0
2015-Sep-02 06:03N 47°59' W 122°21'0 0.1
2015-Sep-02 05:29N 47°59' W 122°21'0 0.0
2015-Sep-02 04:43N 47°59' W 122°21'0 0.2
2015-Sep-02 04:32N 47°59' W 122°21'0 0.5
2015-Sep-02 03:33N 47°58' W 122°20'0 1.0
2015-Sep-02 03:33N 47°58' W 122°20'0 0.0
2015-Sep-02 02:33N 47°58' W 122°20'0 0.0
2015-Sep-02 02:33N 47°58' W 122°20'0 0.1
2015-Sep-02 01:33N 47°58' W 122°21'1 1.5
2015-Sep-02 01:07N 47°58' W 122°20'1 1.2
2015-Sep-02 00:33N 47°58' W 122°21'1 2.3
2015-Sep-02 00:07N 47°57' W 122°20'1 1.7
2015-Sep-01 23:32N 47°58' W 122°21'0 7.2
2015-Sep-01 23:32N 47°58' W 122°21'0 0.2
2015-Sep-01 22:33N 47°58' W 122°21'2 2.6
2015-Sep-01 21:46N 47°57' W 122°18'2 9.1
2015-Sep-01 21:33N 47°58' W 122°21'0 0.2
2015-Sep-01 20:34N 47°58' W 122°20'011.5
2015-Sep-01 20:31N 47°58' W 122°21'0 0.1
2015-Sep-01 19:32N 47°58' W 122°21'1 1.5
2015-Sep-01 19:07N 47°58' W 122°20'1 1.0
2015-Sep-01 18:33N 47°58' W 122°21'1 0.8
2015-Sep-01 17:35N 47°58' W 122°20'114.3
2015-Sep-01 17:32N 47°58' W 122°21'2 3.2
2015-Sep-01 16:55N 47°57' W 122°18'2 6.0
2015-Sep-01 16:32N 47°58' W 122°21'2 3.3
2015-Sep-01 15:50N 47°57' W 122°18'2 6.6
2015-Sep-01 15:33N 47°58' W 122°20'0 9.0
2015-Sep-01 15:30N 47°58' W 122°21'1 0.6
2015-Sep-01 14:33N 47°58' W 122°20'010.7
2015-Sep-01 14:31N 47°58' W 122°21'0 0.4
2015-Sep-01 13:33N 47°58' W 122°20'0 0.4
2015-Sep-01 12:35N 47°58' W 122°20'019.5
2015-Sep-01 12:33N 47°58' W 122°20'0 0.4
2015-Sep-01 11:33N 47°58' W 122°21'0 0.0
2015-Sep-01 10:33N 47°58' W 122°21'0 0.0
2015-Sep-01 09:33N 47°58' W 122°21'0 0.0
2015-Sep-01 08:33N 47°58' W 122°21'1 0.8
2015-Sep-01 07:33N 47°58' W 122°20'0 0.3
2015-Sep-01 06:33N 47°58' W 122°20'0 0.5
2015-Sep-01 05:34N 47°58' W 122°21'0 0.4
2015-Sep-01 04:33N 47°58' W 122°20'0 0.3
2015-Sep-01 03:33N 47°58' W 122°21'2 2.1
2015-Sep-01 02:43N 47°57' W 122°19'2 9.8
2015-Sep-01 02:32N 47°58' W 122°21'1 3.1
2015-Sep-01 02:12N 47°58' W 122°20'1 1.5
2015-Sep-01 01:33N 47°58' W 122°21'0 0.0
2015-Sep-01 00:32N 47°58' W 122°21'2 6.1
2015-Sep-01 00:12N 47°57' W 122°19'2 3.2
2015-Aug-31 23:33N 47°58' W 122°21'0 0.2
2015-Aug-31 22:33N 47°58' W 122°21'0 9.2
2015-Aug-31 22:31N 47°58' W 122°21'0 0.3
2015-Aug-31 21:33N 47°58' W 122°21'0 9.8
2015-Aug-31 21:32N 47°58' W 122°21'0 0.1
2015-Aug-31 20:34N 47°58' W 122°21'0 0.0
2015-Aug-31 20:16N 47°58' W 122°21'0 0.0
2015-Aug-31 19:33N 47°58' W 122°21'0 0.0
2015-Aug-31 19:31N 47°58' W 122°21'0 0.2
2015-Aug-31 18:33N 47°58' W 122°21'2 3.4
2015-Aug-31 17:56N 47°57' W 122°18'2 5.3
2015-Aug-31 17:32N 47°58' W 122°21'0 9.3
2015-Aug-31 17:31N 47°58' W 122°21'0 0.3
2015-Aug-31 16:33N 47°58' W 122°20'0 8.6
2015-Aug-31 16:30N 47°58' W 122°21'1 0.8
2015-Aug-31 15:33N 47°58' W 122°20'1 0.7
2015-Aug-31 14:36N 47°58' W 122°19'118.3
2015-Aug-31 14:33N 47°58' W 122°20'0 0.1
2015-Aug-31 13:33N 47°58' W 122°20'0 0.2
2015-Aug-31 12:33N 47°58' W 122°20'0 0.4
2015-Aug-31 11:39N 47°58' W 122°21'0 0.0
2015-Aug-31 11:31N 47°58' W 122°21'0 0.0
2015-Aug-31 11:09N 47°58' W 122°21'0 0.0
2015-Aug-31 10:32N 47°58' W 122°21'0 0.0
2015-Aug-31 09:59N 47°58' W 122°21'0 0.0
2015-Aug-31 09:32N 47°58' W 122°21'0 0.0
2015-Aug-31 09:24N 47°58' W 122°21'0 0.0
2015-Aug-31 08:32N 47°58' W 122°21'0 0.4
2015-Aug-31 07:33N 47°58' W 122°21'0 0.2
2015-Aug-31 06:33N 47°58' W 122°21'0 0.3
2015-Aug-31 05:34N 47°58' W 122°20'0 0.1
2015-Aug-31 04:33N 47°58' W 122°20'0 0.4
2015-Aug-31 03:33N 47°58' W 122°21'0 0.3
2015-Aug-31 02:33N 47°58' W 122°20'0 0.2
2015-Aug-31 01:33N 47°58' W 122°21'0 0.0
2015-Aug-31 00:33N 47°58' W 122°21'0 0.2
2015-Aug-30 23:33N 47°58' W 122°20'0 7.0
2015-Aug-30 23:32N 47°58' W 122°21'0 0.2
2015-Aug-30 22:33N 47°58' W 122°20'0 0.3
2015-Aug-30 21:33N 47°58' W 122°21'0 0.2
2015-Aug-30 20:33N 47°58' W 122°21'0 0.1
2015-Aug-30 19:33N 47°58' W 122°21'0 0.2
2015-Aug-30 18:33N 47°58' W 122°21'1 0.5
2015-Aug-30 17:33N 47°58' W 122°20'0 0.4
2015-Aug-30 16:32N 47°58' W 122°21'0 0.4
2015-Aug-30 15:33N 47°58' W 122°20'0 0.1
2015-Aug-30 14:33N 47°58' W 122°20'2 0.1
2015-Aug-29 20:07N 47°57' W 122°19'2 3.5
2015-Aug-29 19:31N 47°58' W 122°21'0 0.1
2015-Aug-29 17:12N 47°58' W 122°21'0 0.2
2015-Aug-29 16:33N 47°58' W 122°21'0 0.0
2015-Aug-29 15:32N 47°58' W 122°21'0 0.2
2015-Aug-29 14:33N 47°58' W 122°21'0 0.1
2015-Aug-29 13:33N 47°58' W 122°21'0 0.2
2015-Aug-29 12:33N 47°58' W 122°20'0 0.2
2015-Aug-29 10:06N 47°58' W 122°21'0 0.0
2015-Aug-29 09:30N 47°58' W 122°21'0 0.3
2015-Aug-29 08:32N 47°58' W 122°21'0 0.4
2015-Aug-29 07:34N 47°58' W 122°20'0 0.3
2015-Aug-29 06:33N 47°58' W 122°20'0 0.5
2015-Aug-29 05:32N 47°58' W 122°21'0 0.1
2015-Aug-29 04:33N 47°58' W 122°21'0 0.3
2015-Aug-29 03:34N 47°58' W 122°20'0 0.1
2015-Aug-29 02:33N 47°58' W 122°21'0 0.2
2015-Aug-29 01:33N 47°58' W 122°20'0 0.3
2015-Aug-29 00:33N 47°58' W 122°21'0 0.2
2015-Aug-28 23:33N 47°58' W 122°20'0 0.1
2015-Aug-28 22:33N 47°58' W 122°20'0 0.3
2015-Aug-28 21:33N 47°58' W 122°21'0 0.2
2015-Aug-28 20:33N 47°58' W 122°21'0 0.1
2015-Aug-28 19:33N 47°58' W 122°21'0 0.1
2015-Aug-28 18:33N 47°58' W 122°21'0 0.0
2015-Aug-28 17:33N 47°58' W 122°21'1 0.6
2015-Aug-28 16:33N 47°58' W 122°20'0 0.2
2015-Aug-28 15:33N 47°58' W 122°20'0 0.1
2015-Aug-28 14:34N 47°58' W 122°21'0 0.0
2015-Aug-28 13:33N 47°58' W 122°21'0 0.2
2015-Aug-28 12:33N 47°58' W 122°21'0 0.4
2015-Aug-28 11:15N 47°59' W 122°21'0 0.0
2015-Aug-28 08:30N 47°59' W 122°21'0 0.0
2015-Aug-28 07:27N 47°59' W 122°21'0 0.0
2015-Aug-28 06:31N 47°59' W 122°21'0 0.0
2015-Aug-28 05:31N 47°59' W 122°21'0 0.3
2015-Aug-28 04:33N 47°58' W 122°21'0 0.2
2015-Aug-28 03:33N 47°58' W 122°21'0 0.4
2015-Aug-28 02:33N 47°58' W 122°20'0 0.1
2015-Aug-28 01:34N 47°58' W 122°21'0 0.3
2015-Aug-28 00:33N 47°58' W 122°21'0 0.0
2015-Aug-27 23:33N 47°58' W 122°21'0 0.0
2015-Aug-27 22:33N 47°58' W 122°21'0 0.0
2015-Aug-27 21:34N 47°58' W 122°21'0 0.0
2015-Aug-27 20:33N 47°58' W 122°21'0 0.0
2015-Aug-27 19:32N 47°58' W 122°21'0 0.2
2015-Aug-27 18:33N 47°58' W 122°21'0 0.2
2015-Aug-27 17:33N 47°58' W 122°20'0 0.1
2015-Aug-27 16:33N 47°58' W 122°21'0 0.3
2015-Aug-27 15:33N 47°58' W 122°20'0 0.2
2015-Aug-27 14:33N 47°58' W 122°20'0 0.3
2015-Aug-27 13:33N 47°58' W 122°21'0 0.4
2015-Aug-27 12:33N 47°58' W 122°20'1 0.1
2015-Aug-27 07:06N 47°58' W 122°20'1 1.3
2015-Aug-27 06:33N 47°58' W 122°20'0 0.1
2015-Aug-27 05:33N 47°58' W 122°20'0 0.4
2015-Aug-27 04:33N 47°58' W 122°21'0 0.0
2015-Aug-27 03:31N 47°58' W 122°21'0 0.5
2015-Aug-27 02:34N 47°58' W 122°20'0 0.1
2015-Aug-27 01:33N 47°58' W 122°20'0 0.3
2015-Aug-27 00:32N 47°58' W 122°21'0 0.2
2015-Aug-26 23:33N 47°58' W 122°21'0 0.4
2015-Aug-26 22:33N 47°58' W 122°21'0 0.0
2015-Aug-26 21:33N 47°58' W 122°21'0 0.4
2015-Aug-26 20:33N 47°58' W 122°21'0 0.1
2015-Aug-26 19:33N 47°58' W 122°21'0 0.1
2015-Aug-26 18:34N 47°58' W 122°21'0 0.0
2015-Aug-26 17:33N 47°58' W 122°21'0 0.3
2015-Aug-26 16:33N 47°58' W 122°20'0 0.0
2015-Aug-26 15:33N 47°58' W 122°20'0 0.0
2015-Aug-26 14:33N 47°58' W 122°20'0 0.3
2015-Aug-26 13:32N 47°58' W 122°21'0 0.4
2015-Aug-26 12:33N 47°58' W 122°20'1 0.1
2015-Aug-26 04:17N 47°59' W 122°21'0 0.2
2015-Aug-26 03:33N 47°58' W 122°21'0 0.4
2015-Aug-26 02:33N 47°58' W 122°20'0 0.3
2015-Aug-26 01:32N 47°58' W 122°21'0 0.1
2015-Aug-26 00:33N 47°58' W 122°21'0 0.0
2015-Aug-25 23:33N 47°58' W 122°21'0 0.0
2015-Aug-25 22:33N 47°58' W 122°21'0 0.0
2015-Aug-25 21:33N 47°58' W 122°21'0 0.1
2015-Aug-25 20:33N 47°58' W 122°21'0 0.5
2015-Aug-25 19:33N 47°58' W 122°20'0 0.1
2015-Aug-25 18:34N 47°58' W 122°20'0 0.0
2015-Aug-25 17:32N 47°58' W 122°21'0 0.0
2015-Aug-25 16:33N 47°58' W 122°21'0 0.0
2015-Aug-25 15:33N 47°58' W 122°20'0 0.0
2015-Aug-25 14:34N 47°58' W 122°21'0 0.2
2015-Aug-25 13:34N 47°58' W 122°21'0 0.2
2015-Aug-25 12:33N 47°58' W 122°21'1 0.5
2015-Aug-25 11:29N 47°59' W 122°21'0 0.0
2015-Aug-25 09:15N 47°59' W 122°21'0 0.0
2015-Aug-25 08:22N 47°59' W 122°21'0 0.0
2015-Aug-25 05:07N 47°59' W 122°21'0 0.0
2015-Aug-25 04:18N 47°59' W 122°21'0 0.3
2015-Aug-25 03:33N 47°58' W 122°21'0 0.2
2015-Aug-25 02:32N 47°58' W 122°21'0 0.0
2015-Aug-25 01:33N 47°58' W 122°21'0 0.4
2015-Aug-25 00:33N 47°58' W 122°21'0 0.0
2015-Aug-24 23:33N 47°58' W 122°21'0 0.0
2015-Aug-24 22:32N 47°58' W 122°21'0 0.2
2015-Aug-24 21:33N 47°58' W 122°21'0 0.2
2015-Aug-24 20:33N 47°58' W 122°21'0 0.1
2015-Aug-24 19:33N 47°58' W 122°21'0 0.3
2015-Aug-24 18:27N 47°58' W 122°21'0 0.3
2015-Aug-24 17:33N 47°58' W 122°21'0 0.3
2015-Aug-24 16:33N 47°58' W 122°20'0 0.4
2015-Aug-24 15:33N 47°58' W 122°21'0 0.4
2015-Aug-24 14:34N 47°58' W 122°20'0 0.2
2015-Aug-24 13:33N 47°58' W 122°21'0 0.2
2015-Aug-24 12:33N 47°58' W 122°20'0 0.4
2015-Aug-24 11:19N 47°58' W 122°21'0 0.0
2015-Aug-24 10:19N 47°58' W 122°21'0 0.0
2015-Aug-24 08:22N 47°58' W 122°21'0 0.6
2015-Aug-24 07:33N 47°58' W 122°20'0 0.1
2015-Aug-24 06:33N 47°58' W 122°21'0 0.1
2015-Aug-24 05:32N 47°58' W 122°21'0 0.3
2015-Aug-24 04:33N 47°58' W 122°20'0 0.1
2015-Aug-24 03:33N 47°58' W 122°20'0 0.4
2015-Aug-24 02:32N 47°58' W 122°21'0 0.0
2015-Aug-24 01:31N 47°58' W 122°21'0 0.4
2015-Aug-24 00:33N 47°58' W 122°20'0 0.3
2015-Aug-23 23:32N 47°58' W 122°21'0 0.1
2015-Aug-23 22:33N 47°58' W 122°21'0 0.0
2015-Aug-23 21:22N 47°58' W 122°21'0 0.3
2015-Aug-23 20:33N 47°58' W 122°21'0 0.2
2015-Aug-23 19:33N 47°58' W 122°21'0 0.0
2015-Aug-23 18:33N 47°58' W 122°21'0 0.3
2015-Aug-23 17:33N 47°58' W 122°21'  
Track history (hours):
 
Tides and Currents Weather Stations Pressure Air Temp Water Temp Dewpoint Dewpoint Depression Visibility Wind Speed Wind Dir Waves Ship Positions

Kittitas

Owner: WASHINGTON, STATE OF; Department of Transportation, OLYMPIA, WA. More information available from US FCC via Universal Licensing System and Coast Guard Vessel Documentation Center.

Last reported at 2015-Sep-02 16:33 UTC. Time now 2015-Sep-02 16:59 UTC.
Position N 47°58' W 122°20'.

Length 100 m; draft 4.7 m.

Type: Passenger vessel. MMSI: 366772960.

Date/timePositionNaut miles runAvg speedWind from/ knotsBaromVisibWave heightAir tempDewpointWater temp
2015-Sep-02 16:33N 47°58' W 122°20'0 1.3
2015-Sep-02 16:12N 47°58' W 122°21'0 0.6
2015-Sep-02 15:33N 47°58' W 122°20'1 1.5
2015-Sep-02 15:07N 47°58' W 122°20'1 1.1
2015-Sep-02 14:33N 47°58' W 122°20'013.7
2015-Sep-02 14:32N 47°58' W 122°21'0 0.1
2015-Sep-02 13:33N 47°58' W 122°20'1 1.8
2015-Sep-02 13:06N 47°58' W 122°20'1 1.4
2015-Sep-02 12:33N 47°58' W 122°20'010.0
2015-Sep-02 12:31N 47°58' W 122°21'0 0.3
2015-Sep-02 11:33N 47°59' W 122°21'0 0.0
2015-Sep-02 10:33N 47°59' W 122°21'0 0.3
2015-Sep-02 10:25N 47°59' W 122°21'0 0.0
2015-Sep-02 09:20N 47°59' W 122°21'0 0.0
2015-Sep-02 08:08N 47°59' W 122°21'0 0.7
2015-Sep-02 08:05N 47°59' W 122°21'0 0.1
2015-Sep-02 07:30N 47°59' W 122°21'0 0.0
2015-Sep-02 07:30N 47°59' W 122°21'0 0.0
2015-Sep-02 06:33N 47°59' W 122°21'0 0.0
2015-Sep-02 06:03N 47°59' W 122°21'0 0.1
2015-Sep-02 05:29N 47°59' W 122°21'0 0.0
2015-Sep-02 04:43N 47°59' W 122°21'0 0.2
2015-Sep-02 04:32N 47°59' W 122°21'0 0.5
2015-Sep-02 03:33N 47°58' W 122°20'0 1.0
2015-Sep-02 03:33N 47°58' W 122°20'0 0.0
2015-Sep-02 02:33N 47°58' W 122°20'0 0.0
2015-Sep-02 02:33N 47°58' W 122°20'0 0.1
2015-Sep-02 01:33N 47°58' W 122°21'1 1.5
2015-Sep-02 01:07N 47°58' W 122°20'1 1.2
2015-Sep-02 00:33N 47°58' W 122°21'1 2.3
2015-Sep-02 00:07N 47°57' W 122°20'1 1.7
2015-Sep-01 23:32N 47°58' W 122°21'0 7.2
2015-Sep-01 23:32N 47°58' W 122°21'0 0.2
2015-Sep-01 22:33N 47°58' W 122°21'2 2.6
2015-Sep-01 21:46N 47°57' W 122°18'2 9.1
2015-Sep-01 21:33N 47°58' W 122°21'0 0.2
2015-Sep-01 20:34N 47°58' W 122°20'011.5
2015-Sep-01 20:31N 47°58' W 122°21'0 0.1
2015-Sep-01 19:32N 47°58' W 122°21'1 1.5
2015-Sep-01 19:07N 47°58' W 122°20'1 1.0
2015-Sep-01 18:33N 47°58' W 122°21'1 0.8
2015-Sep-01 17:35N 47°58' W 122°20'114.3
2015-Sep-01 17:32N 47°58' W 122°21'2 3.2
2015-Sep-01 16:55N 47°57' W 122°18'2 6.0
2015-Sep-01 16:32N 47°58' W 122°21'2 3.3
2015-Sep-01 15:50N 47°57' W 122°18'2 6.6
2015-Sep-01 15:33N 47°58' W 122°20'0 9.0
2015-Sep-01 15:30N 47°58' W 122°21'1 0.6
2015-Sep-01 14:33N 47°58' W 122°20'010.7
2015-Sep-01 14:31N 47°58' W 122°21'0 0.4
2015-Sep-01 13:33N 47°58' W 122°20'0 0.4
2015-Sep-01 12:35N 47°58' W 122°20'019.5
2015-Sep-01 12:33N 47°58' W 122°20'0 0.4
2015-Sep-01 11:33N 47°58' W 122°21'0 0.0
2015-Sep-01 10:33N 47°58' W 122°21'0 0.0
2015-Sep-01 09:33N 47°58' W 122°21'0 0.0
2015-Sep-01 08:33N 47°58' W 122°21'1 0.8
2015-Sep-01 07:33N 47°58' W 122°20'0 0.3
2015-Sep-01 06:33N 47°58' W 122°20'0 0.5
2015-Sep-01 05:34N 47°58' W 122°21'0 0.4
2015-Sep-01 04:33N 47°58' W 122°20'0 0.3
2015-Sep-01 03:33N 47°58' W 122°21'2 2.1
2015-Sep-01 02:43N 47°57' W 122°19'2 9.8
2015-Sep-01 02:32N 47°58' W 122°21'1 3.1
2015-Sep-01 02:12N 47°58' W 122°20'1 1.5
2015-Sep-01 01:33N 47°58' W 122°21'0 0.0
2015-Sep-01 00:32N 47°58' W 122°21'2 6.1
2015-Sep-01 00:12N 47°57' W 122°19'2 3.2
2015-Aug-31 23:33N 47°58' W 122°21'0 0.2
2015-Aug-31 22:33N 47°58' W 122°21'0 9.2
2015-Aug-31 22:31N 47°58' W 122°21'0 0.3
2015-Aug-31 21:33N 47°58' W 122°21'0 9.8
2015-Aug-31 21:32N 47°58' W 122°21'0 0.1
2015-Aug-31 20:34N 47°58' W 122°21'0 0.0
2015-Aug-31 20:16N 47°58' W 122°21'0 0.0
2015-Aug-31 19:33N 47°58' W 122°21'0 0.0
2015-Aug-31 19:31N 47°58' W 122°21'0 0.2
2015-Aug-31 18:33N 47°58' W 122°21'2 3.4
2015-Aug-31 17:56N 47°57' W 122°18'2 5.3
2015-Aug-31 17:32N 47°58' W 122°21'0 9.3
2015-Aug-31 17:31N 47°58' W 122°21'0 0.3
2015-Aug-31 16:33N 47°58' W 122°20'0 8.6
2015-Aug-31 16:30N 47°58' W 122°21'1 0.8
2015-Aug-31 15:33N 47°58' W 122°20'1 0.7
2015-Aug-31 14:36N 47°58' W 122°19'118.3
2015-Aug-31 14:33N 47°58' W 122°20'0 0.1
2015-Aug-31 13:33N 47°58' W 122°20'0 0.2
2015-Aug-31 12:33N 47°58' W 122°20'0 0.4
2015-Aug-31 11:39N 47°58' W 122°21'0 0.0
2015-Aug-31 11:31N 47°58' W 122°21'0 0.0
2015-Aug-31 11:09N 47°58' W 122°21'0 0.0
2015-Aug-31 10:32N 47°58' W 122°21'0 0.0
2015-Aug-31 09:59N 47°58' W 122°21'0 0.0
2015-Aug-31 09:32N 47°58' W 122°21'0 0.0
2015-Aug-31 09:24N 47°58' W 122°21'0 0.0
2015-Aug-31 08:32N 47°58' W 122°21'0 0.4
2015-Aug-31 07:33N 47°58' W 122°21'0 0.2
2015-Aug-31 06:33N 47°58' W 122°21'0 0.3
2015-Aug-31 05:34N 47°58' W 122°20'0 0.1
2015-Aug-31 04:33N 47°58' W 122°20'0 0.4
2015-Aug-31 03:33N 47°58' W 122°21'0 0.3
2015-Aug-31 02:33N 47°58' W 122°20'0 0.2
2015-Aug-31 01:33N 47°58' W 122°21'0 0.0
2015-Aug-31 00:33N 47°58' W 122°21'0 0.2
2015-Aug-30 23:33N 47°58' W 122°20'0 7.0
2015-Aug-30 23:32N 47°58' W 122°21'0 0.2
2015-Aug-30 22:33N 47°58' W 122°20'0 0.3
2015-Aug-30 21:33N 47°58' W 122°21'0 0.2
2015-Aug-30 20:33N 47°58' W 122°21'0 0.1
2015-Aug-30 19:33N 47°58' W 122°21'0 0.2
2015-Aug-30 18:33N 47°58' W 122°21'1 0.5
2015-Aug-30 17:33N 47°58' W 122°20'0 0.4
2015-Aug-30 16:32N 47°58' W 122°21'0 0.4
2015-Aug-30 15:33N 47°58' W 122°20'0 0.1
2015-Aug-30 14:33N 47°58' W 122°20'2 0.1
2015-Aug-29 20:07N 47°57' W 122°19'2 3.5
2015-Aug-29 19:31N 47°58' W 122°21'0 0.1
2015-Aug-29 17:12N 47°58' W 122°21'0 0.2
2015-Aug-29 16:33N 47°58' W 122°21'0 0.0
2015-Aug-29 15:32N 47°58' W 122°21'0 0.2
2015-Aug-29 14:33N 47°58' W 122°21'0 0.1
2015-Aug-29 13:33N 47°58' W 122°21'0 0.2
2015-Aug-29 12:33N 47°58' W 122°20'0 0.2
2015-Aug-29 10:06N 47°58' W 122°21'0 0.0
2015-Aug-29 09:30N 47°58' W 122°21'0 0.3
2015-Aug-29 08:32N 47°58' W 122°21'0 0.4
2015-Aug-29 07:34N 47°58' W 122°20'0 0.3
2015-Aug-29 06:33N 47°58' W 122°20'0 0.5
2015-Aug-29 05:32N 47°58' W 122°21'0 0.1
2015-Aug-29 04:33N 47°58' W 122°21'0 0.3
2015-Aug-29 03:34N 47°58' W 122°20'0 0.1
2015-Aug-29 02:33N 47°58' W 122°21'0 0.2
2015-Aug-29 01:33N 47°58' W 122°20'0 0.3
2015-Aug-29 00:33N 47°58' W 122°21'0 0.2
2015-Aug-28 23:33N 47°58' W 122°20'0 0.1
2015-Aug-28 22:33N 47°58' W 122°20'0 0.3
2015-Aug-28 21:33N 47°58' W 122°21'0 0.2
2015-Aug-28 20:33N 47°58' W 122°21'0 0.1
2015-Aug-28 19:33N 47°58' W 122°21'0 0.1
2015-Aug-28 18:33N 47°58' W 122°21'0 0.0
2015-Aug-28 17:33N 47°58' W 122°21'1 0.6
2015-Aug-28 16:33N 47°58' W 122°20'0 0.2
2015-Aug-28 15:33N 47°58' W 122°20'0 0.1
2015-Aug-28 14:34N 47°58' W 122°21'0 0.0
2015-Aug-28 13:33N 47°58' W 122°21'0 0.2
2015-Aug-28 12:33N 47°58' W 122°21'0 0.4
2015-Aug-28 11:15N 47°59' W 122°21'0 0.0
2015-Aug-28 08:30N 47°59' W 122°21'0 0.0
2015-Aug-28 07:27N 47°59' W 122°21'0 0.0
2015-Aug-28 06:31N 47°59' W 122°21'0 0.0
2015-Aug-28 05:31N 47°59' W 122°21'0 0.3
2015-Aug-28 04:33N 47°58' W 122°21'0 0.2
2015-Aug-28 03:33N 47°58' W 122°21'0 0.4
2015-Aug-28 02:33N 47°58' W 122°20'0 0.1
2015-Aug-28 01:34N 47°58' W 122°21'0 0.3
2015-Aug-28 00:33N 47°58' W 122°21'0 0.0
2015-Aug-27 23:33N 47°58' W 122°21'0 0.0
2015-Aug-27 22:33N 47°58' W 122°21'0 0.0
2015-Aug-27 21:34N 47°58' W 122°21'0 0.0
2015-Aug-27 20:33N 47°58' W 122°21'0 0.0
2015-Aug-27 19:32N 47°58' W 122°21'0 0.2
2015-Aug-27 18:33N 47°58' W 122°21'0 0.2
2015-Aug-27 17:33N 47°58' W 122°20'0 0.1
2015-Aug-27 16:33N 47°58' W 122°21'0 0.3
2015-Aug-27 15:33N 47°58' W 122°20'0 0.2
2015-Aug-27 14:33N 47°58' W 122°20'0 0.3
2015-Aug-27 13:33N 47°58' W 122°21'0 0.4
2015-Aug-27 12:33N 47°58' W 122°20'1 0.1
2015-Aug-27 07:06N 47°58' W 122°20'1 1.3
2015-Aug-27 06:33N 47°58' W 122°20'0 0.1
2015-Aug-27 05:33N 47°58' W 122°20'0 0.4
2015-Aug-27 04:33N 47°58' W 122°21'0 0.0
2015-Aug-27 03:31N 47°58' W 122°21'0 0.5
2015-Aug-27 02:34N 47°58' W 122°20'0 0.1
2015-Aug-27 01:33N 47°58' W 122°20'0 0.3
2015-Aug-27 00:32N 47°58' W 122°21'0 0.2
2015-Aug-26 23:33N 47°58' W 122°21'0 0.4
2015-Aug-26 22:33N 47°58' W 122°21'0 0.0
2015-Aug-26 21:33N 47°58' W 122°21'0 0.4
2015-Aug-26 20:33N 47°58' W 122°21'0 0.1
2015-Aug-26 19:33N 47°58' W 122°21'0 0.1
2015-Aug-26 18:34N 47°58' W 122°21'0 0.0
2015-Aug-26 17:33N 47°58' W 122°21'0 0.3
2015-Aug-26 16:33N 47°58' W 122°20'0 0.0
2015-Aug-26 15:33N 47°58' W 122°20'0 0.0
2015-Aug-26 14:33N 47°58' W 122°20'0 0.3
2015-Aug-26 13:32N 47°58' W 122°21'0 0.4
2015-Aug-26 12:33N 47°58' W 122°20'1 0.1
2015-Aug-26 04:17N 47°59' W 122°21'0 0.2
2015-Aug-26 03:33N 47°58' W 122°21'0 0.4
2015-Aug-26 02:33N 47°58' W 122°20'0 0.3
2015-Aug-26 01:32N 47°58' W 122°21'0 0.1
2015-Aug-26 00:33N 47°58' W 122°21'0 0.0
2015-Aug-25 23:33N 47°58' W 122°21'0 0.0
2015-Aug-25 22:33N 47°58' W 122°21'0 0.0
2015-Aug-25 21:33N 47°58' W 122°21'0 0.1
2015-Aug-25 20:33N 47°58' W 122°21'0 0.5
2015-Aug-25 19:33N 47°58' W 122°20'0 0.1
2015-Aug-25 18:34N 47°58' W 122°20'0 0.0
2015-Aug-25 17:32N 47°58' W 122°21'0 0.0
2015-Aug-25 16:33N 47°58' W 122°21'0 0.0
2015-Aug-25 15:33N 47°58' W 122°20'0 0.0
2015-Aug-25 14:34N 47°58' W 122°21'0 0.2
2015-Aug-25 13:34N 47°58' W 122°21'0 0.2
2015-Aug-25 12:33N 47°58' W 122°21'1 0.5
2015-Aug-25 11:29N 47°59' W 122°21'0 0.0
2015-Aug-25 09:15N 47°59' W 122°21'0 0.0
2015-Aug-25 08:22N 47°59' W 122°21'0 0.0
2015-Aug-25 05:07N 47°59' W 122°21'0 0.0
2015-Aug-25 04:18N 47°59' W 122°21'0 0.3
2015-Aug-25 03:33N 47°58' W 122°21'0 0.2
2015-Aug-25 02:32N 47°58' W 122°21'0 0.0
2015-Aug-25 01:33N 47°58' W 122°21'0 0.4
2015-Aug-25 00:33N 47°58' W 122°21'0 0.0
2015-Aug-24 23:33N 47°58' W 122°21'0 0.0
2015-Aug-24 22:32N 47°58' W 122°21'0 0.2
2015-Aug-24 21:33N 47°58' W 122°21'0 0.2
2015-Aug-24 20:33N 47°58' W 122°21'0 0.1
2015-Aug-24 19:33N 47°58' W 122°21'0 0.3
2015-Aug-24 18:27N 47°58' W 122°21'0 0.3
2015-Aug-24 17:33N 47°58' W 122°21'0 0.3
2015-Aug-24 16:33N 47°58' W 122°20'0 0.4
2015-Aug-24 15:33N 47°58' W 122°21'0 0.4
2015-Aug-24 14:34N 47°58' W 122°20'0 0.2
2015-Aug-24 13:33N 47°58' W 122°21'0 0.2
2015-Aug-24 12:33N 47°58' W 122°20'0 0.4
2015-Aug-24 11:19N 47°58' W 122°21'0 0.0
2015-Aug-24 10:19N 47°58' W 122°21'0 0.0
2015-Aug-24 08:22N 47°58' W 122°21'0 0.6
2015-Aug-24 07:33N 47°58' W 122°20'0 0.1
2015-Aug-24 06:33N 47°58' W 122°21'0 0.1
2015-Aug-24 05:32N 47°58' W 122°21'0 0.3
2015-Aug-24 04:33N 47°58' W 122°20'0 0.1
2015-Aug-24 03:33N 47°58' W 122°20'0 0.4
2015-Aug-24 02:32N 47°58' W 122°21'0 0.0
2015-Aug-24 01:31N 47°58' W 122°21'0 0.4
2015-Aug-24 00:33N 47°58' W 122°20'0 0.3
2015-Aug-23 23:32N 47°58' W 122°21'0 0.1
2015-Aug-23 22:33N 47°58' W 122°21'0 0.0
2015-Aug-23 21:22N 47°58' W 122°21'0 0.3
2015-Aug-23 20:33N 47°58' W 122°21'0 0.2
2015-Aug-23 19:33N 47°58' W 122°21'0 0.0
2015-Aug-23 18:33N 47°58' W 122°21'0 0.3
2015-Aug-23 17:33N 47°58' W 122°21'  

Dump ship's entire track history